sensor_id;sensor_type;location;lat;lon;timestamp;pressure;altitude;pressure_sealevel;temperature;humidity
23899;BME280;20544;50.018;20.010;2023-03-18T00:01:47;99022.88;;;2.79;100.00
23899;BME280;20544;50.018;20.010;2023-03-18T00:05:03;99027.30;;;2.78;100.00
23899;BME280;20544;50.018;20.010;2023-03-18T00:08:21;99008.61;;;2.71;100.00
23899;BME280;20544;50.018;20.010;2023-03-18T00:11:37;99016.02;;;2.66;100.00
23899;BME280;20544;50.018;20.010;2023-03-18T00:14:54;99012.13;;;2.61;100.00
23899;BME280;20544;50.018;20.010;2023-03-18T00:18:10;99008.98;;;2.34;100.00
23899;BME280;20544;50.018;20.010;2023-03-18T00:21:26;99008.19;;;2.22;100.00
23899;BME280;20544;50.018;20.010;2023-03-18T00:24:43;99005.22;;;2.27;100.00
23899;BME280;20544;50.018;20.010;2023-03-18T00:28:00;99002.34;;;2.30;100.00
23899;BME280;20544;50.018;20.010;2023-03-18T00:31:17;99005.41;;;2.35;100.00
23899;BME280;20544;50.018;20.010;2023-03-18T00:34:33;99001.97;;;2.35;100.00
23899;BME280;20544;50.018;20.010;2023-03-18T00:37:50;99005.80;;;2.31;100.00
23899;BME280;20544;50.018;20.010;2023-03-18T00:41:06;98996.41;;;2.28;100.00
23899;BME280;20544;50.018;20.010;2023-03-18T00:44:26;98996.31;;;2.18;100.00
23899;BME280;20544;50.018;20.010;2023-03-18T00:47:43;98998.47;;;2.13;100.00
23899;BME280;20544;50.018;20.010;2023-03-18T00:51:01;98995.92;;;2.23;100.00
23899;BME280;20544;50.018;20.010;2023-03-18T00:54:19;98995.83;;;2.24;100.00
23899;BME280;20544;50.018;20.010;2023-03-18T00:57:36;98990.45;;;2.26;100.00
23899;BME280;20544;50.018;20.010;2023-03-18T01:00:53;98987.70;;;2.28;100.00
23899;BME280;20544;50.018;20.010;2023-03-18T01:04:09;98982.34;;;2.29;100.00
23899;BME280;20544;50.018;20.010;2023-03-18T01:07:27;98991.17;;;2.28;100.00
23899;BME280;20544;50.018;20.010;2023-03-18T01:10:44;98984.64;;;2.22;100.00
23899;BME280;20544;50.018;20.010;2023-03-18T01:14:00;98985.26;;;2.15;100.00
23899;BME280;20544;50.018;20.010;2023-03-18T01:17:17;98977.05;;;2.08;100.00
23899;BME280;20544;50.018;20.010;2023-03-18T01:20:33;98976.45;;;2.04;100.00
23899;BME280;20544;50.018;20.010;2023-03-18T01:23:50;98974.84;;;1.92;100.00
23899;BME280;20544;50.018;20.010;2023-03-18T01:27:08;98970.20;;;1.84;100.00
23899;BME280;20544;50.018;20.010;2023-03-18T01:30:26;98971.66;;;1.77;100.00
23899;BME280;20544;50.018;20.010;2023-03-18T01:33:43;98966.17;;;1.80;100.00
23899;BME280;20544;50.018;20.010;2023-03-18T01:37:01;98961.75;;;1.81;100.00
23899;BME280;20544;50.018;20.010;2023-03-18T01:40:19;98961.77;;;1.69;100.00
23899;BME280;20544;50.018;20.010;2023-03-18T01:43:38;98962.25;;;1.63;100.00
23899;BME280;20544;50.018;20.010;2023-03-18T01:46:56;98954.07;;;1.56;100.00
23899;BME280;20544;50.018;20.010;2023-03-18T01:50:15;98952.19;;;1.47;100.00
23899;BME280;20544;50.018;20.010;2023-03-18T01:53:43;98951.46;;;1.45;100.00
23899;BME280;20544;50.018;20.010;2023-03-18T01:56:55;98954.08;;;1.45;100.00
23899;BME280;20544;50.018;20.010;2023-03-18T02:00:13;98941.00;;;1.45;100.00
23899;BME280;20544;50.018;20.010;2023-03-18T02:03:31;98949.31;;;1.50;100.00
23899;BME280;20544;50.018;20.010;2023-03-18T02:06:48;98960.84;;;1.48;100.00
23899;BME280;20544;50.018;20.010;2023-03-18T02:10:08;98949.31;;;1.50;100.00
23899;BME280;20544;50.018;20.010;2023-03-18T02:13:27;98960.03;;;1.47;100.00
23899;BME280;20544;50.018;20.010;2023-03-18T02:16:47;98953.59;;;1.51;100.00
23899;BME280;20544;50.018;20.010;2023-03-18T02:20:14;98943.73;;;1.55;100.00
23899;BME280;20544;50.018;20.010;2023-03-18T02:23:36;98941.22;;;1.53;100.00
23899;BME280;20544;50.018;20.010;2023-03-18T02:26:58;98947.91;;;1.46;100.00
23899;BME280;20544;50.018;20.010;2023-03-18T02:30:20;98944.91;;;1.39;100.00
23899;BME280;20544;50.018;20.010;2023-03-18T02:33:40;98945.52;;;1.32;100.00
23899;BME280;20544;50.018;20.010;2023-03-18T02:36:57;98947.78;;;1.36;100.00
23899;BME280;20544;50.018;20.010;2023-03-18T02:40:19;98941.48;;;1.39;100.00
23899;BME280;20544;50.018;20.010;2023-03-18T02:43:37;98939.47;;;1.42;100.00
23899;BME280;20544;50.018;20.010;2023-03-18T02:46:56;98938.52;;;1.32;100.00
23899;BME280;20544;50.018;20.010;2023-03-18T02:53:29;98939.47;;;1.31;100.00
23899;BME280;20544;50.018;20.010;2023-03-18T02:56:46;98938.52;;;1.32;100.00
23899;BME280;20544;50.018;20.010;2023-03-18T03:00:02;98939.69;;;1.17;100.00
23899;BME280;20544;50.018;20.010;2023-03-18T03:03:22;98938.48;;;1.09;100.00
23899;BME280;20544;50.018;20.010;2023-03-18T03:06:39;98936.59;;;1.00;100.00
23899;BME280;20544;50.018;20.010;2023-03-18T03:09:57;98935.52;;;1.03;100.00
23899;BME280;20544;50.018;20.010;2023-03-18T03:13:13;98936.47;;;1.02;100.00
23899;BME280;20544;50.018;20.010;2023-03-18T03:16:34;98939.20;;;1.00;100.00
23899;BME280;20544;50.018;20.010;2023-03-18T03:19:50;98932.91;;;1.03;100.00
23899;BME280;20544;50.018;20.010;2023-03-18T03:23:07;98932.44;;;0.98;100.00
23899;BME280;20544;50.018;20.010;2023-03-18T03:26:27;98931.97;;;1.04;100.00
23899;BME280;20544;50.018;20.010;2023-03-18T03:29:45;98934.80;;;1.01;100.00
23899;BME280;20544;50.018;20.010;2023-03-18T03:33:02;98930.04;;;0.94;100.00
23899;BME280;20544;50.018;20.010;2023-03-18T03:36:19;98926.27;;;0.99;100.00
23899;BME280;20544;50.018;20.010;2023-03-18T03:39:36;98929.45;;;1.02;100.00
23899;BME280;20544;50.018;20.010;2023-03-18T03:42:53;98930.77;;;1.08;100.00
23899;BME280;20544;50.018;20.010;2023-03-18T03:46:11;98936.00;;;1.08;100.00
23899;BME280;20544;50.018;20.010;2023-03-18T03:49:27;98930.64;;;0.98;100.00
23899;BME280;20544;50.018;20.010;2023-03-18T03:52:43;98933.50;;;0.95;100.00
23899;BME280;20544;50.018;20.010;2023-03-18T03:56:01;98933.25;;;0.98;100.00
23899;BME280;20544;50.018;20.010;2023-03-18T03:59:19;98929.95;;;0.96;100.00
23899;BME280;20544;50.018;20.010;2023-03-18T04:02:56;98930.77;;;0.96;100.00
23899;BME280;20544;50.018;20.010;2023-03-18T04:06:12;98932.65;;;0.94;100.00
23899;BME280;20544;50.018;20.010;2023-03-18T04:09:30;98938.34;;;0.88;100.00
23899;BME280;20544;50.018;20.010;2023-03-18T04:12:47;98934.64;;;0.79;100.00
23899;BME280;20544;50.018;20.010;2023-03-18T04:16:04;98934.55;;;0.81;100.00
23899;BME280;20544;50.018;20.010;2023-03-18T04:19:22;98928.59;;;0.79;100.00
23899;BME280;20544;50.018;20.010;2023-03-18T04:22:38;98933.68;;;0.69;100.00
23899;BME280;20544;50.018;20.010;2023-03-18T04:25:55;98934.62;;;0.68;100.00
23899;BME280;20544;50.018;20.010;2023-03-18T04:29:13;98938.30;;;0.66;100.00
23899;BME280;20544;50.018;20.010;2023-03-18T04:32:31;98954.20;;;0.62;100.00
23899;BME280;20544;50.018;20.010;2023-03-18T04:35:48;98948.98;;;0.62;100.00
23899;BME280;20544;50.018;20.010;2023-03-18T04:39:05;98946.09;;;0.54;100.00
23899;BME280;20544;50.018;20.010;2023-03-18T04:42:21;98957.32;;;0.43;100.00
23899;BME280;20544;50.018;20.010;2023-03-18T04:45:38;98956.45;;;0.31;100.00
23899;BME280;20544;50.018;20.010;2023-03-18T04:48:54;98957.79;;;0.13;100.00
23899;BME280;20544;50.018;20.010;2023-03-18T04:52:11;98960.46;;;0.00;100.00
23899;BME280;20544;50.018;20.010;2023-03-18T04:55:28;98955.88;;;-0.09;100.00
23899;BME280;20544;50.018;20.010;2023-03-18T04:58:46;98964.26;;;-0.17;100.00
23899;BME280;20544;50.018;20.010;2023-03-18T05:02:04;98959.86;;;-0.17;100.00
23899;BME280;20544;50.018;20.010;2023-03-18T05:05:21;98964.69;;;-0.23;100.00
23899;BME280;20544;50.018;20.010;2023-03-18T05:08:38;98956.12;;;-0.12;100.00
23899;BME280;20544;50.018;20.010;2023-03-18T05:11:54;98958.61;;;-0.11;100.00
23899;BME280;20544;50.018;20.010;2023-03-18T05:15:13;98959.16;;;-0.19;100.00
23899;BME280;20544;50.018;20.010;2023-03-18T05:18:33;98961.65;;;-0.17;100.00
23899;BME280;20544;50.018;20.010;2023-03-18T05:21:49;98964.44;;;-0.07;100.00
23899;BME280;20544;50.018;20.010;2023-03-18T05:25:07;98959.73;;;-0.02;100.00
23899;BME280;20544;50.018;20.010;2023-03-18T05:28:25;98969.28;;;0.10;100.00
23899;BME280;20544;50.018;20.010;2023-03-18T05:31:43;98973.55;;;0.36;100.00
23899;BME280;20544;50.018;20.010;2023-03-18T05:35:00;98981.25;;;0.61;100.00
23899;BME280;20544;50.018;20.010;2023-03-18T05:38:18;98968.59;;;0.79;100.00
23899;BME280;20544;50.018;20.010;2023-03-18T05:41:35;98971.83;;;0.94;100.00
23899;BME280;20544;50.018;20.010;2023-03-18T05:44:52;98980.42;;;1.19;100.00
23899;BME280;20544;50.018;20.010;2023-03-18T05:48:10;98975.34;;;1.29;100.00
23899;BME280;20544;50.018;20.010;2023-03-18T05:51:29;98969.39;;;1.38;100.00
23899;BME280;20544;50.018;20.010;2023-03-18T05:54:47;98973.20;;;1.45;100.00
23899;BME280;20544;50.018;20.010;2023-03-18T05:58:05;98971.89;;;1.63;100.00
23899;BME280;20544;50.018;20.010;2023-03-18T06:01:22;98968.91;;;1.78;100.00
23899;BME280;20544;50.018;20.010;2023-03-18T06:04:38;98963.79;;;1.88;100.00
23899;BME280;20544;50.018;20.010;2023-03-18T06:07:55;98972.23;;;1.92;100.00
23899;BME280;20544;50.018;20.010;2023-03-18T06:11:14;98969.61;;;1.92;100.00
23899;BME280;20544;50.018;20.010;2023-03-18T06:14:31;98964.96;;;1.84;100.00
23899;BME280;20544;50.018;20.010;2023-03-18T06:17:49;98971.35;;;2.03;100.00
23899;BME280;20544;50.018;20.010;2023-03-18T06:21:06;98983.09;;;2.20;100.00
23899;BME280;20544;50.018;20.010;2023-03-18T06:24:23;98978.77;;;2.30;100.00
23899;BME280;20544;50.018;20.010;2023-03-18T06:27:39;98980.63;;;2.51;100.00
23899;BME280;20544;50.018;20.010;2023-03-18T06:30:58;98990.67;;;2.67;100.00
23899;BME280;20544;50.018;20.010;2023-03-18T06:34:14;98986.63;;;2.63;100.00
23899;BME280;20544;50.018;20.010;2023-03-18T06:37:33;98996.05;;;3.07;100.00
23899;BME280;20544;50.018;20.010;2023-03-18T06:40:53;99000.59;;;3.27;100.00
23899;BME280;20544;50.018;20.010;2023-03-18T06:44:11;99007.61;;;3.88;100.00
23899;BME280;20544;50.018;20.010;2023-03-18T06:47:29;99004.16;;;4.67;100.00
23899;BME280;20544;50.018;20.010;2023-03-18T06:50:45;99015.01;;;5.22;100.00
23899;BME280;20544;50.018;20.010;2023-03-18T06:54:02;99010.23;;;5.55;100.00
23899;BME280;20544;50.018;20.010;2023-03-18T06:57:18;99019.98;;;6.56;100.00
23899;BME280;20544;50.018;20.010;2023-03-18T07:00:35;99012.70;;;7.12;100.00
23899;BME280;20544;50.018;20.010;2023-03-18T07:03:55;99017.77;;;7.58;100.00
23899;BME280;20544;50.018;20.010;2023-03-18T07:07:12;99022.47;;;7.46;100.00
23899;BME280;20544;50.018;20.010;2023-03-18T07:10:30;99023.24;;;7.65;100.00
23899;BME280;20544;50.018;20.010;2023-03-18T07:13:49;99031.62;;;7.86;100.00
23899;BME280;20544;50.018;20.010;2023-03-18T07:17:12;99025.32;;;7.87;100.00
23899;BME280;20544;50.018;20.010;2023-03-18T07:20:28;99031.26;;;8.24;100.00
23899;BME280;20544;50.018;20.010;2023-03-18T07:23:44;99043.10;;;8.71;100.00
23899;BME280;20544;50.018;20.010;2023-03-18T07:27:04;99033.22;;;9.06;100.00
23899;BME280;20544;50.018;20.010;2023-03-18T07:30:21;99041.96;;;9.23;100.00
23899;BME280;20544;50.018;20.010;2023-03-18T07:33:38;99039.28;;;9.56;100.00
23899;BME280;20544;50.018;20.010;2023-03-18T07:36:57;99043.16;;;9.93;100.00
23899;BME280;20544;50.018;20.010;2023-03-18T07:40:15;99049.56;;;10.47;100.00
23899;BME280;20544;50.018;20.010;2023-03-18T07:43:34;99044.95;;;10.41;100.00
23899;BME280;20544;50.018;20.010;2023-03-18T07:46:51;99046.91;;;10.07;100.00
23899;BME280;20544;50.018;20.010;2023-03-18T07:50:10;99056.05;;;10.67;100.00
23899;BME280;20544;50.018;20.010;2023-03-18T07:53:32;99053.66;;;10.81;100.00
23899;BME280;20544;50.018;20.010;2023-03-18T07:56:49;99060.06;;;11.10;100.00
23899;BME280;20544;50.018;20.010;2023-03-18T08:00:08;99065.47;;;11.55;100.00
23899;BME280;20544;50.018;20.010;2023-03-18T08:03:28;99055.83;;;11.39;100.00
23899;BME280;20544;50.018;20.010;2023-03-18T08:06:45;99057.23;;;11.49;100.00
23899;BME280;20544;50.018;20.010;2023-03-18T08:10:02;99060.72;;;11.65;100.00
23899;BME280;20544;50.018;20.010;2023-03-18T08:13:19;99063.30;;;11.73;100.00
23899;BME280;20544;50.018;20.010;2023-03-18T08:16:36;99066.03;;;11.80;100.00
23899;BME280;20544;50.018;20.010;2023-03-18T08:19:53;99065.27;;;11.03;100.00
23899;BME280;20544;50.018;20.010;2023-03-18T08:23:09;99061.67;;;10.96;100.00
23899;BME280;20544;50.018;20.010;2023-03-18T08:26:27;99065.73;;;10.83;100.00
23899;BME280;20544;50.018;20.010;2023-03-18T08:29:43;99060.96;;;11.02;100.00
23899;BME280;20544;50.018;20.010;2023-03-18T08:33:00;99057.78;;;10.83;100.00
23899;BME280;20544;50.018;20.010;2023-03-18T08:36:18;99062.19;;;10.91;100.00
23899;BME280;20544;50.018;20.010;2023-03-18T08:39:36;99058.00;;;10.74;100.00
23899;BME280;20544;50.018;20.010;2023-03-18T08:42:53;99053.69;;;10.49;100.00
23899;BME280;20544;50.018;20.010;2023-03-18T08:46:09;99060.09;;;10.87;100.00
23899;BME280;20544;50.018;20.010;2023-03-18T08:49:26;99063.67;;;10.71;100.00
23899;BME280;20544;50.018;20.010;2023-03-18T08:52:45;99059.35;;;11.16;100.00
23899;BME280;20544;50.018;20.010;2023-03-18T08:56:03;99067.02;;;11.34;100.00
23899;BME280;20544;50.018;20.010;2023-03-18T08:59:22;99067.68;;;11.66;100.00
23899;BME280;20544;50.018;20.010;2023-03-18T09:02:39;99062.30;;;11.89;100.00
23899;BME280;20544;50.018;20.010;2023-03-18T09:05:55;99065.06;;;11.96;100.00
23899;BME280;20544;50.018;20.010;2023-03-18T09:09:12;99063.98;;;12.05;99.23
23899;BME280;20544;50.018;20.010;2023-03-18T09:12:30;99056.87;;;12.42;100.00
23899;BME280;20544;50.018;20.010;2023-03-18T09:15:47;99049.77;;;12.50;98.46
23899;BME280;20544;50.018;20.010;2023-03-18T09:19:03;99057.34;;;12.68;100.00
23899;BME280;20544;50.018;20.010;2023-03-18T09:22:20;99060.25;;;12.73;98.72
23899;BME280;20544;50.018;20.010;2023-03-18T09:25:36;99056.19;;;12.55;98.95
23899;BME280;20544;50.018;20.010;2023-03-18T09:28:53;99057.89;;;12.63;97.78
23899;BME280;20544;50.018;20.010;2023-03-18T09:32:12;99057.70;;;12.65;97.22
23899;BME280;20544;50.018;20.010;2023-03-18T09:35:29;99050.73;;;12.27;97.18
23899;BME280;20544;50.018;20.010;2023-03-18T09:38:45;99049.41;;;12.53;97.76
23899;BME280;20544;50.018;20.010;2023-03-18T09:42:12;99051.05;;;12.97;97.31
23899;BME280;20544;50.018;20.010;2023-03-18T09:45:34;99055.45;;;13.33;95.41
23899;BME280;20544;50.018;20.010;2023-03-18T09:49:14;99049.08;;;13.06;96.90
23899;BME280;20544;50.018;20.010;2023-03-18T09:52:45;99046.63;;;13.54;97.86
23899;BME280;20544;50.018;20.010;2023-03-18T09:56:03;99039.92;;;14.00;95.88
23899;BME280;20544;50.018;20.010;2023-03-18T09:59:23;99038.97;;;14.15;95.96
23899;BME280;20544;50.018;20.010;2023-03-18T10:02:45;99047.96;;;13.72;96.19
23899;BME280;20544;50.018;20.010;2023-03-18T10:06:06;99031.97;;;13.72;97.15
23899;BME280;20544;50.018;20.010;2023-03-18T10:09:29;99046.45;;;13.56;94.70
23899;BME280;20544;50.018;20.010;2023-03-18T10:12:49;99048.38;;;13.69;96.63
23899;BME280;20544;50.018;20.010;2023-03-18T10:16:12;99029.25;;;14.00;97.81
23899;BME280;20544;50.018;20.010;2023-03-18T10:19:32;99033.77;;;14.55;97.59
23899;BME280;20544;50.018;20.010;2023-03-18T10:22:58;99029.56;;;14.94;95.29
23899;BME280;20544;50.018;20.010;2023-03-18T10:26:25;99030.16;;;14.96;95.33
23899;BME280;20544;50.018;20.010;2023-03-18T10:29:47;99023.39;;;14.87;96.18
23899;BME280;20544;50.018;20.010;2023-03-18T10:33:09;99020.73;;;15.00;93.14
23899;BME280;20544;50.018;20.010;2023-03-18T10:36:34;99017.00;;;15.35;93.00
23899;BME280;20544;50.018;20.010;2023-03-18T10:40:00;99012.86;;;15.52;93.83
23899;BME280;20544;50.018;20.010;2023-03-18T10:43:20;99016.99;;;15.48;93.59
23899;BME280;20544;50.018;20.010;2023-03-18T10:46:38;99011.67;;;15.28;95.08
23899;BME280;20544;50.018;20.010;2023-03-18T10:50:02;99010.01;;;15.54;93.47
23899;BME280;20544;50.018;20.010;2023-03-18T10:53:22;99008.80;;;14.96;90.56
23899;BME280;20544;50.018;20.010;2023-03-18T10:56:43;99005.53;;;14.94;92.04
23899;BME280;20544;50.018;20.010;2023-03-18T11:00:01;98992.36;;;14.86;94.66
23899;BME280;20544;50.018;20.010;2023-03-18T11:03:25;99001.00;;;15.22;95.19
23899;BME280;20544;50.018;20.010;2023-03-18T11:06:46;99002.63;;;15.43;94.49
23899;BME280;20544;50.018;20.010;2023-03-18T11:10:17;99000.94;;;15.62;92.32
23899;BME280;20544;50.018;20.010;2023-03-18T11:13:38;98995.56;;;15.75;92.09
23899;BME280;20544;50.018;20.010;2023-03-18T11:17:03;98993.16;;;15.47;92.59
23899;BME280;20544;50.018;20.010;2023-03-18T11:20:29;98989.64;;;15.46;91.24
23899;BME280;20544;50.018;20.010;2023-03-18T11:23:54;98982.63;;;15.65;93.49
23899;BME280;20544;50.018;20.010;2023-03-18T11:27:36;98991.83;;;15.76;92.90
23899;BME280;20544;50.018;20.010;2023-03-18T11:30:56;98979.11;;;15.65;93.26
23899;BME280;20544;50.018;20.010;2023-03-18T11:34:19;98970.09;;;15.59;92.48
23899;BME280;20544;50.018;20.010;2023-03-18T11:37:37;98971.58;;;15.42;91.82
23899;BME280;20544;50.018;20.010;2023-03-18T11:40:59;98967.06;;;15.29;91.76
23899;BME280;20544;50.018;20.010;2023-03-18T11:44:26;98970.56;;;15.23;91.81
23899;BME280;20544;50.018;20.010;2023-03-18T11:47:44;98961.55;;;15.03;92.33
23899;BME280;20544;50.018;20.010;2023-03-18T11:51:17;98953.95;;;15.07;93.49
23899;BME280;20544;50.018;20.010;2023-03-18T11:55:10;98947.19;;;14.98;92.11
23899;BME280;20544;50.018;20.010;2023-03-18T11:59:00;98947.39;;;14.90;93.19
23899;BME280;20544;50.018;20.010;2023-03-18T12:02:42;98942.45;;;14.80;92.05
23899;BME280;20544;50.018;20.010;2023-03-18T12:06:15;98938.95;;;14.72;92.74
23899;BME280;20544;50.018;20.010;2023-03-18T12:09:39;98945.11;;;14.66;92.81
23899;BME280;20544;50.018;20.010;2023-03-18T12:13:20;98928.64;;;14.43;93.06
23899;BME280;20544;50.018;20.010;2023-03-18T12:16:55;98922.88;;;14.26;92.93
23899;BME280;20544;50.018;20.010;2023-03-18T12:20:45;98925.34;;;14.34;94.04
23899;BME280;20544;50.018;20.010;2023-03-18T12:24:20;98923.06;;;14.24;93.06
23899;BME280;20544;50.018;20.010;2023-03-18T12:27:50;98919.77;;;14.15;93.20
23899;BME280;20544;50.018;20.010;2023-03-18T12:35:18;98922.63;;;14.07;93.20
23899;BME280;20544;50.018;20.010;2023-03-18T12:39:20;98913.58;;;14.01;93.23
23899;BME280;20544;50.018;20.010;2023-03-18T12:46:58;98912.55;;;13.96;92.93
23899;BME280;20544;50.018;20.010;2023-03-18T12:50:19;98907.39;;;13.87;93.39
23899;BME280;20544;50.018;20.010;2023-03-18T12:53:44;98905.11;;;13.84;93.04
23899;BME280;20544;50.018;20.010;2023-03-18T12:57:06;98901.00;;;13.82;93.37
23899;BME280;20544;50.018;20.010;2023-03-18T13:00:28;98895.66;;;13.82;93.12
23899;BME280;20544;50.018;20.010;2023-03-18T13:03:53;98894.05;;;13.81;93.14
23899;BME280;20544;50.018;20.010;2023-03-18T13:07:15;98888.72;;;13.81;92.55
23899;BME280;20544;50.018;20.010;2023-03-18T13:10:35;98883.39;;;13.81;92.53
23899;BME280;20544;50.018;20.010;2023-03-18T13:13:55;98879.45;;;13.70;92.37
23899;BME280;20544;50.018;20.010;2023-03-18T13:17:15;98878.81;;;13.68;91.70
23899;BME280;20544;50.018;20.010;2023-03-18T13:20:36;98870.02;;;13.74;91.99
23899;BME280;20544;50.018;20.010;2023-03-18T13:27:43;98871.24;;;13.71;91.79
23899;BME280;20544;50.018;20.010;2023-03-18T13:31:16;98876.19;;;13.74;92.28
23899;BME280;20544;50.018;20.010;2023-03-18T13:35:15;98873.95;;;13.85;91.83
23899;BME280;20544;50.018;20.010;2023-03-18T13:42:42;98862.44;;;13.71;90.62
23899;BME280;20544;50.018;20.010;2023-03-18T13:46:02;98852.80;;;13.70;90.54
23899;BME280;20544;50.018;20.010;2023-03-18T13:49:28;98864.27;;;13.70;90.70
23899;BME280;20544;50.018;20.010;2023-03-18T13:52:47;98862.40;;;13.64;90.99
23899;BME280;20544;50.018;20.010;2023-03-18T13:56:23;98854.61;;;13.63;90.95
23899;BME280;20544;50.018;20.010;2023-03-18T13:59:48;98852.75;;;13.63;90.91
23899;BME280;20544;50.018;20.010;2023-03-18T14:03:20;98856.26;;;13.64;90.85
23899;BME280;20544;50.018;20.010;2023-03-18T14:06:50;98849.28;;;13.63;90.45
23899;BME280;20544;50.018;20.010;2023-03-18T14:10:17;98848.47;;;13.62;90.38
23899;BME280;20544;50.018;20.010;2023-03-18T14:13:36;98844.58;;;13.65;90.05
23899;BME280;20544;50.018;20.010;2023-03-18T14:16:54;98850.93;;;13.64;89.86
23899;BME280;20544;50.018;20.010;2023-03-18T14:20:24;98848.89;;;13.66;89.67
23899;BME280;20544;50.018;20.010;2023-03-18T14:23:45;98845.39;;;13.65;89.55
23899;BME280;20544;50.018;20.010;2023-03-18T14:27:17;98832.91;;;13.66;89.64
23899;BME280;20544;50.018;20.010;2023-03-18T14:30:49;98832.06;;;13.65;89.73
23899;BME280;20544;50.018;20.010;2023-03-18T14:34:32;98824.91;;;13.66;91.39
23899;BME280;20544;50.018;20.010;2023-03-18T14:38:00;98814.85;;;13.68;92.54
23899;BME280;20544;50.018;20.010;2023-03-18T14:41:23;98824.32;;;13.77;91.17
23899;BME280;20544;50.018;20.010;2023-03-18T14:44:46;98818.78;;;13.79;91.25
23899;BME280;20544;50.018;20.010;2023-03-18T14:48:10;98816.75;;;13.81;91.30
23899;BME280;20544;50.018;20.010;2023-03-18T14:51:33;98818.19;;;13.90;93.09
23899;BME280;20544;50.018;20.010;2023-03-18T14:54:51;98822.50;;;13.91;92.25
23899;BME280;20544;50.018;20.010;2023-03-18T14:58:18;98815.52;;;13.90;92.15
23899;BME280;20544;50.018;20.010;2023-03-18T15:01:37;98817.38;;;13.89;92.11
23899;BME280;20544;50.018;20.010;2023-03-18T15:04:59;98821.03;;;13.82;92.53
23899;BME280;20544;50.018;20.010;2023-03-18T15:08:21;98811.59;;;13.79;93.23
23899;BME280;20544;50.018;20.010;2023-03-18T15:11:47;98812.43;;;13.80;93.09
23899;BME280;20544;50.018;20.010;2023-03-18T15:15:11;98818.78;;;13.79;93.36
23899;BME280;20544;50.018;20.010;2023-03-18T15:18:34;98809.95;;;13.78;93.09
23899;BME280;20544;50.018;20.010;2023-03-18T15:21:54;98805.66;;;13.77;93.62
23899;BME280;20544;50.018;20.010;2023-03-18T15:25:19;98817.34;;;13.76;93.36
23899;BME280;20544;50.018;20.010;2023-03-18T15:28:36;98810.36;;;13.68;93.02
23899;BME280;20544;50.018;20.010;2023-03-18T15:31:53;98813.83;;;13.62;93.19
23899;BME280;20544;50.018;20.010;2023-03-18T15:40:49;98815.61;;;13.48;93.90
23899;BME280;20544;50.018;20.010;2023-03-18T15:44:13;98812.34;;;13.46;93.82
23899;BME280;20544;50.018;20.010;2023-03-18T15:47:33;98811.28;;;13.40;94.19
23899;BME280;20544;50.018;20.010;2023-03-18T15:50:57;98809.20;;;13.36;93.99
23899;BME280;20544;50.018;20.010;2023-03-18T15:54:22;98811.45;;;13.32;94.04
23899;BME280;20544;50.018;20.010;2023-03-18T15:57:39;98812.84;;;13.28;93.80
23899;BME280;20544;50.018;20.010;2023-03-18T16:00:57;98816.72;;;13.25;94.21
23899;BME280;20544;50.018;20.010;2023-03-18T16:04:16;98819.16;;;13.20;94.67
23899;BME280;20544;50.018;20.010;2023-03-18T16:07:34;98816.70;;;13.19;94.31
23899;BME280;20544;50.018;20.010;2023-03-18T16:10:53;98808.28;;;13.15;94.12
23899;BME280;20544;50.018;20.010;2023-03-18T16:14:15;98827.13;;;13.14;94.26
23899;BME280;20544;50.018;20.010;2023-03-18T16:17:36;98819.95;;;13.14;94.14
23899;BME280;20544;50.018;20.010;2023-03-18T16:20:53;98830.38;;;13.09;94.20
23899;BME280;20544;50.018;20.010;2023-03-18T16:24:10;98831.80;;;13.05;94.00
23899;BME280;20544;50.018;20.010;2023-03-18T16:27:32;98835.85;;;13.01;94.17
23899;BME280;20544;50.018;20.010;2023-03-18T16:30:50;98830.30;;;12.95;94.35
23899;BME280;20544;50.018;20.010;2023-03-18T16:34:14;98830.88;;;12.91;94.30
23899;BME280;20544;50.018;20.010;2023-03-18T16:37:31;98823.70;;;12.85;98.78
23899;BME280;20544;50.018;20.010;2023-03-18T16:40:47;98826.27;;;12.71;97.65
23899;BME280;20544;50.018;20.010;2023-03-18T16:44:10;98826.91;;;12.45;100.00
23899;BME280;20544;50.018;20.010;2023-03-18T16:47:28;98826.30;;;12.21;100.00
23899;BME280;20544;50.018;20.010;2023-03-18T16:50:46;98827.58;;;12.04;100.00
23899;BME280;20544;50.018;20.010;2023-03-18T16:54:16;98819.00;;;11.87;100.00
23899;BME280;20544;50.018;20.010;2023-03-18T16:57:34;98818.95;;;11.65;100.00
23899;BME280;20544;50.018;20.010;2023-03-18T17:00:51;98823.05;;;11.46;100.00
23899;BME280;20544;50.018;20.010;2023-03-18T17:04:17;98827.38;;;11.32;100.00
23899;BME280;20544;50.018;20.010;2023-03-18T17:07:37;98822.28;;;11.15;100.00
23899;BME280;20544;50.018;20.010;2023-03-18T17:10:56;98827.13;;;10.97;100.00
23899;BME280;20544;50.018;20.010;2023-03-18T17:14:23;98818.98;;;10.83;100.00
23899;BME280;20544;50.018;20.010;2023-03-18T17:17:43;98825.93;;;10.70;100.00
23899;BME280;20544;50.018;20.010;2023-03-18T17:21:00;98817.48;;;10.51;100.00
23899;BME280;20544;50.018;20.010;2023-03-18T17:24:17;98815.28;;;10.40;100.00
23899;BME280;20544;50.018;20.010;2023-03-18T17:27:36;98825.16;;;10.23;100.00
23899;BME280;20544;50.018;20.010;2023-03-18T17:30:55;98825.77;;;10.10;100.00
23899;BME280;20544;50.018;20.010;2023-03-18T17:34:13;98831.12;;;10.01;100.00
23899;BME280;20544;50.018;20.010;2023-03-18T17:37:30;98816.11;;;9.94;100.00
23899;BME280;20544;50.018;20.010;2023-03-18T17:40:47;98823.11;;;9.86;100.00
23899;BME280;20544;50.018;20.010;2023-03-18T17:44:04;98822.41;;;9.69;100.00
23899;BME280;20544;50.018;20.010;2023-03-18T17:47:38;98822.33;;;9.54;100.00
23899;BME280;20544;50.018;20.010;2023-03-18T17:50:57;98820.11;;;9.35;100.00